sensor_id;sensor_type;location;lat;lon;timestamp;temperature;humidity
17795;DHT22;9021;50.882;4.326;2023-05-14T00:01:30;16.00;99.90
17795;DHT22;9021;50.882;4.326;2023-05-14T00:03:56;16.00;99.90
17795;DHT22;9021;50.882;4.326;2023-05-14T00:06:21;16.10;99.90
17795;DHT22;9021;50.882;4.326;2023-05-14T00:08:47;16.10;99.90
17795;DHT22;9021;50.882;4.326;2023-05-14T00:11:12;16.00;99.90
17795;DHT22;9021;50.882;4.326;2023-05-14T00:13:38;16.10;99.90
17795;DHT22;9021;50.882;4.326;2023-05-14T00:16:03;16.10;99.90
17795;DHT22;9021;50.882;4.326;2023-05-14T00:18:29;16.00;99.90
17795;DHT22;9021;50.882;4.326;2023-05-14T00:20:55;16.00;99.90
17795;DHT22;9021;50.882;4.326;2023-05-14T00:23:21;16.00;99.90
17795;DHT22;9021;50.882;4.326;2023-05-14T00:25:46;16.00;99.90
17795;DHT22;9021;50.882;4.326;2023-05-14T00:28:12;16.00;99.90
17795;DHT22;9021;50.882;4.326;2023-05-14T00:30:37;15.90;99.90
17795;DHT22;9021;50.882;4.326;2023-05-14T00:33:04;16.00;99.90
17795;DHT22;9021;50.882;4.326;2023-05-14T00:35:29;16.00;99.90
17795;DHT22;9021;50.882;4.326;2023-05-14T00:37:55;16.00;99.90
17795;DHT22;9021;50.882;4.326;2023-05-14T00:40:22;16.00;99.90
17795;DHT22;9021;50.882;4.326;2023-05-14T00:42:49;16.00;99.90
17795;DHT22;9021;50.882;4.326;2023-05-14T00:45:15;16.10;99.90
17795;DHT22;9021;50.882;4.326;2023-05-14T00:47:41;16.00;99.90
17795;DHT22;9021;50.882;4.326;2023-05-14T00:50:07;16.00;99.90
17795;DHT22;9021;50.882;4.326;2023-05-14T00:52:32;16.10;99.90
17795;DHT22;9021;50.882;4.326;2023-05-14T00:54:58;15.90;99.90
17795;DHT22;9021;50.882;4.326;2023-05-14T00:57:24;15.90;99.90
17795;DHT22;9021;50.882;4.326;2023-05-14T00:59:50;16.00;99.90
17795;DHT22;9021;50.882;4.326;2023-05-14T01:02:16;16.00;99.90
17795;DHT22;9021;50.882;4.326;2023-05-14T01:04:41;15.90;99.90
17795;DHT22;9021;50.882;4.326;2023-05-14T01:07:29;16.00;99.90
17795;DHT22;9021;50.882;4.326;2023-05-14T01:17:37;16.00;99.90
17795;DHT22;9021;50.882;4.326;2023-05-14T01:20:03;15.90;99.90
17795;DHT22;9021;50.882;4.326;2023-05-14T01:22:29;15.90;99.90
17795;DHT22;9021;50.882;4.326;2023-05-14T01:24:54;15.90;99.90
17795;DHT22;9021;50.882;4.326;2023-05-14T01:32:43;15.80;99.90
17795;DHT22;9021;50.882;4.326;2023-05-14T01:35:11;15.90;99.90
17795;DHT22;9021;50.882;4.326;2023-05-14T01:37:37;15.90;99.90
17795;DHT22;9021;50.882;4.326;2023-05-14T01:40:03;15.90;99.90
17795;DHT22;9021;50.882;4.326;2023-05-14T01:42:29;16.00;99.90
17795;DHT22;9021;50.882;4.326;2023-05-14T01:44:55;16.00;99.90
17795;DHT22;9021;50.882;4.326;2023-05-14T01:47:20;15.90;99.90
17795;DHT22;9021;50.882;4.326;2023-05-14T01:49:46;15.90;99.90
17795;DHT22;9021;50.882;4.326;2023-05-14T01:52:11;16.00;99.90
17795;DHT22;9021;50.882;4.326;2023-05-14T01:54:37;15.90;99.90
17795;DHT22;9021;50.882;4.326;2023-05-14T01:57:02;15.90;99.90
17795;DHT22;9021;50.882;4.326;2023-05-14T01:59:28;14.80;99.90
17795;DHT22;9021;50.882;4.326;2023-05-14T02:01:54;15.90;99.90
17795;DHT22;9021;50.882;4.326;2023-05-14T02:04:20;15.90;99.90
17795;DHT22;9021;50.882;4.326;2023-05-14T02:06:45;15.90;99.90
17795;DHT22;9021;50.882;4.326;2023-05-14T02:09:11;15.90;99.90
17795;DHT22;9021;50.882;4.326;2023-05-14T02:11:36;15.90;99.90
17795;DHT22;9021;50.882;4.326;2023-05-14T02:14:02;15.90;99.90
17795;DHT22;9021;50.882;4.326;2023-05-14T02:16:27;15.90;99.90
17795;DHT22;9021;50.882;4.326;2023-05-14T02:18:53;15.80;99.90
17795;DHT22;9021;50.882;4.326;2023-05-14T02:21:18;15.90;99.90
17795;DHT22;9021;50.882;4.326;2023-05-14T02:23:44;15.90;99.90
17795;DHT22;9021;50.882;4.326;2023-05-14T02:26:09;15.90;99.90
17795;DHT22;9021;50.882;4.326;2023-05-14T02:28:35;16.00;99.90
17795;DHT22;9021;50.882;4.326;2023-05-14T02:31:00;16.00;99.90
17795;DHT22;9021;50.882;4.326;2023-05-14T02:33:26;16.00;99.90
17795;DHT22;9021;50.882;4.326;2023-05-14T02:35:52;16.00;99.90
17795;DHT22;9021;50.882;4.326;2023-05-14T02:38:17;15.90;99.90
17795;DHT22;9021;50.882;4.326;2023-05-14T02:40:44;15.90;99.90
17795;DHT22;9021;50.882;4.326;2023-05-14T02:43:09;15.90;99.90
17795;DHT22;9021;50.882;4.326;2023-05-14T02:45:35;15.90;99.90
17795;DHT22;9021;50.882;4.326;2023-05-14T02:48:00;15.90;99.90
17795;DHT22;9021;50.882;4.326;2023-05-14T02:50:26;15.80;99.90
17795;DHT22;9021;50.882;4.326;2023-05-14T02:52:51;15.80;99.90
17795;DHT22;9021;50.882;4.326;2023-05-14T02:55:17;15.80;99.90
17795;DHT22;9021;50.882;4.326;2023-05-14T02:57:42;15.80;99.90
17795;DHT22;9021;50.882;4.326;2023-05-14T03:00:08;15.80;99.90
17795;DHT22;9021;50.882;4.326;2023-05-14T03:02:34;15.80;99.90
17795;DHT22;9021;50.882;4.326;2023-05-14T03:05:00;15.90;99.90
17795;DHT22;9021;50.882;4.326;2023-05-14T03:07:25;15.90;99.90
17795;DHT22;9021;50.882;4.326;2023-05-14T03:09:51;15.90;99.90
17795;DHT22;9021;50.882;4.326;2023-05-14T03:12:16;15.90;99.90
17795;DHT22;9021;50.882;4.326;2023-05-14T03:14:42;15.80;99.90
17795;DHT22;9021;50.882;4.326;2023-05-14T03:17:08;15.80;99.90
17795;DHT22;9021;50.882;4.326;2023-05-14T03:19:34;15.80;99.90
17795;DHT22;9021;50.882;4.326;2023-05-14T03:21:59;15.70;99.90
17795;DHT22;9021;50.882;4.326;2023-05-14T03:24:25;15.70;99.90
17795;DHT22;9021;50.882;4.326;2023-05-14T03:26:50;15.70;99.90
17795;DHT22;9021;50.882;4.326;2023-05-14T03:29:16;15.70;99.90
17795;DHT22;9021;50.882;4.326;2023-05-14T03:31:42;15.60;99.90
17795;DHT22;9021;50.882;4.326;2023-05-14T03:34:08;15.70;99.90
17795;DHT22;9021;50.882;4.326;2023-05-14T03:36:33;15.70;99.90
17795;DHT22;9021;50.882;4.326;2023-05-14T03:39:00;15.70;99.90
17795;DHT22;9021;50.882;4.326;2023-05-14T03:41:26;15.70;99.90
17795;DHT22;9021;50.882;4.326;2023-05-14T03:43:51;15.70;99.90
17795;DHT22;9021;50.882;4.326;2023-05-14T03:46:17;15.60;99.90
17795;DHT22;9021;50.882;4.326;2023-05-14T03:48:42;15.70;99.90
17795;DHT22;9021;50.882;4.326;2023-05-14T03:51:08;15.70;99.90
17795;DHT22;9021;50.882;4.326;2023-05-14T03:53:34;15.70;99.90
17795;DHT22;9021;50.882;4.326;2023-05-14T03:55:59;15.70;99.90
17795;DHT22;9021;50.882;4.326;2023-05-14T03:58:25;15.60;99.90
17795;DHT22;9021;50.882;4.326;2023-05-14T04:00:50;15.70;99.90
17795;DHT22;9021;50.882;4.326;2023-05-14T04:03:16;15.60;99.90
17795;DHT22;9021;50.882;4.326;2023-05-14T04:05:41;15.70;99.90
17795;DHT22;9021;50.882;4.326;2023-05-14T04:08:07;15.60;99.90
17795;DHT22;9021;50.882;4.326;2023-05-14T04:10:32;15.60;99.90
17795;DHT22;9021;50.882;4.326;2023-05-14T04:12:58;15.60;99.90
17795;DHT22;9021;50.882;4.326;2023-05-14T04:15:24;15.60;99.90
17795;DHT22;9021;50.882;4.326;2023-05-14T04:17:49;15.60;99.90
17795;DHT22;9021;50.882;4.326;2023-05-14T04:20:15;15.80;99.90
17795;DHT22;9021;50.882;4.326;2023-05-14T04:22:41;15.60;99.90
17795;DHT22;9021;50.882;4.326;2023-05-14T04:25:06;15.50;99.90
17795;DHT22;9021;50.882;4.326;2023-05-14T04:27:32;15.50;99.90
17795;DHT22;9021;50.882;4.326;2023-05-14T04:29:58;15.50;99.90
17795;DHT22;9021;50.882;4.326;2023-05-14T04:32:24;15.60;99.90
17795;DHT22;9021;50.882;4.326;2023-05-14T04:34:49;15.70;99.90
17795;DHT22;9021;50.882;4.326;2023-05-14T04:37:15;15.80;99.90
17795;DHT22;9021;50.882;4.326;2023-05-14T04:39:41;15.80;99.90
17795;DHT22;9021;50.882;4.326;2023-05-14T04:42:06;15.70;99.90
17795;DHT22;9021;50.882;4.326;2023-05-14T04:44:35;15.60;99.90
17795;DHT22;9021;50.882;4.326;2023-05-14T04:47:02;15.70;99.90
17795;DHT22;9021;50.882;4.326;2023-05-14T04:49:27;15.80;99.90
17795;DHT22;9021;50.882;4.326;2023-05-14T04:51:53;15.70;99.90
17795;DHT22;9021;50.882;4.326;2023-05-14T04:54:18;15.70;99.90
17795;DHT22;9021;50.882;4.326;2023-05-14T04:56:44;15.70;99.90
17795;DHT22;9021;50.882;4.326;2023-05-14T04:59:09;15.60;99.90
17795;DHT22;9021;50.882;4.326;2023-05-14T05:01:35;15.70;99.90
17795;DHT22;9021;50.882;4.326;2023-05-14T05:04:01;15.70;99.90
17795;DHT22;9021;50.882;4.326;2023-05-14T05:06:26;15.70;99.90
17795;DHT22;9021;50.882;4.326;2023-05-14T05:08:52;15.60;99.90
17795;DHT22;9021;50.882;4.326;2023-05-14T05:11:17;15.70;99.90
17795;DHT22;9021;50.882;4.326;2023-05-14T05:13:43;15.70;99.90
17795;DHT22;9021;50.882;4.326;2023-05-14T05:16:08;15.80;99.90
17795;DHT22;9021;50.882;4.326;2023-05-14T05:18:34;15.80;99.90
17795;DHT22;9021;50.882;4.326;2023-05-14T05:21:00;15.70;99.90
17795;DHT22;9021;50.882;4.326;2023-05-14T05:23:25;15.70;99.90
17795;DHT22;9021;50.882;4.326;2023-05-14T05:25:51;15.80;99.90
17795;DHT22;9021;50.882;4.326;2023-05-14T05:28:16;15.80;99.90
17795;DHT22;9021;50.882;4.326;2023-05-14T05:30:42;15.80;99.90
17795;DHT22;9021;50.882;4.326;2023-05-14T05:33:09;15.80;99.90
17795;DHT22;9021;50.882;4.326;2023-05-14T05:35:35;15.60;99.90
17795;DHT22;9021;50.882;4.326;2023-05-14T05:38:01;15.60;99.90
17795;DHT22;9021;50.882;4.326;2023-05-14T05:40:27;15.80;99.90
17795;DHT22;9021;50.882;4.326;2023-05-14T05:42:52;15.80;99.90
17795;DHT22;9021;50.882;4.326;2023-05-14T05:45:18;15.80;99.90
17795;DHT22;9021;50.882;4.326;2023-05-14T05:47:43;15.80;99.90
17795;DHT22;9021;50.882;4.326;2023-05-14T05:50:09;15.80;99.90
17795;DHT22;9021;50.882;4.326;2023-05-14T05:52:35;16.00;99.90
17795;DHT22;9021;50.882;4.326;2023-05-14T05:55:00;16.10;99.90
17795;DHT22;9021;50.882;4.326;2023-05-14T05:57:26;16.10;99.90
17795;DHT22;9021;50.882;4.326;2023-05-14T05:59:51;16.20;99.90
17795;DHT22;9021;50.882;4.326;2023-05-14T06:02:17;16.20;99.90
17795;DHT22;9021;50.882;4.326;2023-05-14T06:04:43;16.20;99.90
17795;DHT22;9021;50.882;4.326;2023-05-14T06:07:09;16.10;99.90
17795;DHT22;9021;50.882;4.326;2023-05-14T06:09:34;16.10;99.90
17795;DHT22;9021;50.882;4.326;2023-05-14T06:12:00;16.00;99.90
17795;DHT22;9021;50.882;4.326;2023-05-14T06:14:25;15.90;99.90
17795;DHT22;9021;50.882;4.326;2023-05-14T06:16:51;15.90;99.90
17795;DHT22;9021;50.882;4.326;2023-05-14T06:19:16;16.00;99.90
17795;DHT22;9021;50.882;4.326;2023-05-14T06:21:42;15.90;99.90
17795;DHT22;9021;50.882;4.326;2023-05-14T06:24:08;16.00;99.90
17795;DHT22;9021;50.882;4.326;2023-05-14T06:26:34;16.00;99.90
17795;DHT22;9021;50.882;4.326;2023-05-14T06:28:59;15.90;99.90
17795;DHT22;9021;50.882;4.326;2023-05-14T06:31:25;16.00;99.90
17795;DHT22;9021;50.882;4.326;2023-05-14T06:33:50;16.10;99.90
17795;DHT22;9021;50.882;4.326;2023-05-14T06:36:16;16.10;99.90
17795;DHT22;9021;50.882;4.326;2023-05-14T06:38:41;16.20;99.90
17795;DHT22;9021;50.882;4.326;2023-05-14T06:41:07;16.20;99.90
17795;DHT22;9021;50.882;4.326;2023-05-14T06:43:32;16.30;99.90
17795;DHT22;9021;50.882;4.326;2023-05-14T06:45:58;16.30;99.90
17795;DHT22;9021;50.882;4.326;2023-05-14T06:48:24;16.30;99.90
17795;DHT22;9021;50.882;4.326;2023-05-14T06:50:51;16.30;99.90
17795;DHT22;9021;50.882;4.326;2023-05-14T06:53:17;16.40;99.90
17795;DHT22;9021;50.882;4.326;2023-05-14T06:55:42;16.40;99.90
17795;DHT22;9021;50.882;4.326;2023-05-14T06:58:09;16.40;99.90
17795;DHT22;9021;50.882;4.326;2023-05-14T07:00:34;16.30;99.90
17795;DHT22;9021;50.882;4.326;2023-05-14T07:03:00;16.40;99.90
17795;DHT22;9021;50.882;4.326;2023-05-14T07:05:25;16.40;99.90
17795;DHT22;9021;50.882;4.326;2023-05-14T07:07:51;16.50;99.90
17795;DHT22;9021;50.882;4.326;2023-05-14T07:10:17;16.40;99.90
17795;DHT22;9021;50.882;4.326;2023-05-14T07:12:42;16.50;99.90
17795;DHT22;9021;50.882;4.326;2023-05-14T07:15:08;16.40;99.90
17795;DHT22;9021;50.882;4.326;2023-05-14T07:17:34;16.50;99.90
17795;DHT22;9021;50.882;4.326;2023-05-14T07:19:59;16.50;99.90
17795;DHT22;9021;50.882;4.326;2023-05-14T07:22:25;16.40;99.90
17795;DHT22;9021;50.882;4.326;2023-05-14T07:24:50;16.40;99.90
17795;DHT22;9021;50.882;4.326;2023-05-14T07:27:16;16.50;99.90
17795;DHT22;9021;50.882;4.326;2023-05-14T07:29:42;16.50;99.90
17795;DHT22;9021;50.882;4.326;2023-05-14T07:32:07;16.40;99.90
17795;DHT22;9021;50.882;4.326;2023-05-14T07:34:33;16.40;99.90
17795;DHT22;9021;50.882;4.326;2023-05-14T07:36:59;16.40;99.90
17795;DHT22;9021;50.882;4.326;2023-05-14T07:39:24;16.40;99.90
17795;DHT22;9021;50.882;4.326;2023-05-14T07:41:50;16.50;99.90
17795;DHT22;9021;50.882;4.326;2023-05-14T07:44:15;16.70;99.90
17795;DHT22;9021;50.882;4.326;2023-05-14T07:46:41;16.80;99.90
17795;DHT22;9021;50.882;4.326;2023-05-14T07:49:07;16.80;99.90
17795;DHT22;9021;50.882;4.326;2023-05-14T07:51:32;16.70;99.90
17795;DHT22;9021;50.882;4.326;2023-05-14T07:53:58;16.70;99.90
17795;DHT22;9021;50.882;4.326;2023-05-14T07:56:23;16.70;99.90
17795;DHT22;9021;50.882;4.326;2023-05-14T07:58:50;16.70;99.90
17795;DHT22;9021;50.882;4.326;2023-05-14T08:01:15;16.80;99.90
17795;DHT22;9021;50.882;4.326;2023-05-14T08:03:41;16.80;99.90
17795;DHT22;9021;50.882;4.326;2023-05-14T08:06:07;16.80;99.90
17795;DHT22;9021;50.882;4.326;2023-05-14T08:08:32;16.80;99.90
17795;DHT22;9021;50.882;4.326;2023-05-14T08:10:58;16.80;99.90
17795;DHT22;9021;50.882;4.326;2023-05-14T08:13:23;16.70;99.90
17795;DHT22;9021;50.882;4.326;2023-05-14T08:15:49;16.80;99.90
17795;DHT22;9021;50.882;4.326;2023-05-14T08:18:14;16.80;99.90
17795;DHT22;9021;50.882;4.326;2023-05-14T08:20:40;16.90;99.90
17795;DHT22;9021;50.882;4.326;2023-05-14T08:23:06;17.10;99.90
17795;DHT22;9021;50.882;4.326;2023-05-14T08:25:32;17.00;99.90
17795;DHT22;9021;50.882;4.326;2023-05-14T08:27:57;17.10;99.90
17795;DHT22;9021;50.882;4.326;2023-05-14T08:30:24;17.20;99.90
17795;DHT22;9021;50.882;4.326;2023-05-14T08:32:50;17.30;99.90
17795;DHT22;9021;50.882;4.326;2023-05-14T08:35:18;17.50;99.90
17795;DHT22;9021;50.882;4.326;2023-05-14T08:37:44;17.70;99.90
17795;DHT22;9021;50.882;4.326;2023-05-14T08:40:10;17.80;99.90
17795;DHT22;9021;50.882;4.326;2023-05-14T08:42:37;17.90;99.90
17795;DHT22;9021;50.882;4.326;2023-05-14T08:45:04;17.90;99.90
17795;DHT22;9021;50.882;4.326;2023-05-14T08:47:32;18.00;99.90
17795;DHT22;9021;50.882;4.326;2023-05-14T08:50:02;18.10;99.90
17795;DHT22;9021;50.882;4.326;2023-05-14T08:52:29;18.30;99.90
17795;DHT22;9021;50.882;4.326;2023-05-14T08:54:54;18.40;99.90
17795;DHT22;9021;50.882;4.326;2023-05-14T08:57:21;18.50;99.90
17795;DHT22;9021;50.882;4.326;2023-05-14T08:59:49;18.50;99.90
17795;DHT22;9021;50.882;4.326;2023-05-14T09:02:15;18.50;99.90
17795;DHT22;9021;50.882;4.326;2023-05-14T09:04:41;18.70;99.90
17795;DHT22;9021;50.882;4.326;2023-05-14T09:07:07;18.70;99.90
17795;DHT22;9021;50.882;4.326;2023-05-14T09:09:33;18.90;99.90
17795;DHT22;9021;50.882;4.326;2023-05-14T09:11:59;19.00;99.90
17795;DHT22;9021;50.882;4.326;2023-05-14T09:14:25;19.00;99.90
17795;DHT22;9021;50.882;4.326;2023-05-14T09:16:51;19.00;99.90
17795;DHT22;9021;50.882;4.326;2023-05-14T09:19:17;19.20;99.90
17795;DHT22;9021;50.882;4.326;2023-05-14T09:21:46;19.20;99.90
17795;DHT22;9021;50.882;4.326;2023-05-14T09:24:21;19.30;99.90
17795;DHT22;9021;50.882;4.326;2023-05-14T09:26:55;19.50;99.90
17795;DHT22;9021;50.882;4.326;2023-05-14T09:29:24;19.60;99.90
17795;DHT22;9021;50.882;4.326;2023-05-14T09:31:50;19.90;99.90
17795;DHT22;9021;50.882;4.326;2023-05-14T09:34:25;20.30;99.90
17795;DHT22;9021;50.882;4.326;2023-05-14T09:36:55;20.50;99.90
17795;DHT22;9021;50.882;4.326;2023-05-14T09:39:22;20.60;99.90
17795;DHT22;9021;50.882;4.326;2023-05-14T09:41:48;20.60;99.90
17795;DHT22;9021;50.882;4.326;2023-05-14T09:44:13;20.70;99.90
17795;DHT22;9021;50.882;4.326;2023-05-14T09:46:39;20.60;99.90
17795;DHT22;9021;50.882;4.326;2023-05-14T09:49:05;20.70;99.90
17795;DHT22;9021;50.882;4.326;2023-05-14T09:51:30;20.80;99.90
17795;DHT22;9021;50.882;4.326;2023-05-14T09:53:56;20.80;99.90
17795;DHT22;9021;50.882;4.326;2023-05-14T09:56:22;21.00;99.90
17795;DHT22;9021;50.882;4.326;2023-05-14T09:58:47;21.20;99.90
17795;DHT22;9021;50.882;4.326;2023-05-14T10:01:14;21.50;99.90
17795;DHT22;9021;50.882;4.326;2023-05-14T10:03:42;21.70;99.50
17795;DHT22;9021;50.882;4.326;2023-05-14T10:06:08;21.70;99.20
17795;DHT22;9021;50.882;4.326;2023-05-14T10:08:39;21.70;99.00
17795;DHT22;9021;50.882;4.326;2023-05-14T10:11:07;21.90;99.30
17795;DHT22;9021;50.882;4.326;2023-05-14T10:13:36;21.80;99.20
17795;DHT22;9021;50.882;4.326;2023-05-14T10:18:30;22.00;98.50
17795;DHT22;9021;50.882;4.326;2023-05-14T10:20:56;22.30;98.40
17795;DHT22;9021;50.882;4.326;2023-05-14T10:23:25;22.70;98.00
17795;DHT22;9021;50.882;4.326;2023-05-14T10:25:51;23.40;97.10
17795;DHT22;9021;50.882;4.326;2023-05-14T10:28:16;24.50;96.60
17795;DHT22;9021;50.882;4.326;2023-05-14T10:30:45;25.90;94.00
17795;DHT22;9021;50.882;4.326;2023-05-14T10:33:11;26.80;92.80
17795;DHT22;9021;50.882;4.326;2023-05-14T10:35:57;27.70;91.60
17795;DHT22;9021;50.882;4.326;2023-05-14T10:40:56;28.20;90.10
17795;DHT22;9021;50.882;4.326;2023-05-14T10:43:24;28.70;87.90
17795;DHT22;9021;50.882;4.326;2023-05-14T10:45:51;29.30;88.40
17795;DHT22;9021;50.882;4.326;2023-05-14T10:48:16;29.80;84.80
17795;DHT22;9021;50.882;4.326;2023-05-14T10:50:43;29.90;84.30
17795;DHT22;9021;50.882;4.326;2023-05-14T10:53:09;29.40;84.90
17795;DHT22;9021;50.882;4.326;2023-05-14T10:55:35;28.80;85.10
17795;DHT22;9021;50.882;4.326;2023-05-14T10:58:02;28.40;85.40
17795;DHT22;9021;50.882;4.326;2023-05-14T11:00:28;28.70;84.80
17795;DHT22;9021;50.882;4.326;2023-05-14T11:02:54;29.30;84.50
17795;DHT22;9021;50.882;4.326;2023-05-14T11:05:21;29.40;82.90
17795;DHT22;9021;50.882;4.326;2023-05-14T11:07:47;29.80;81.00
17795;DHT22;9021;50.882;4.326;2023-05-14T11:10:16;30.10;81.40
17795;DHT22;9021;50.882;4.326;2023-05-14T11:12:43;30.60;81.50
17795;DHT22;9021;50.882;4.326;2023-05-14T11:15:10;31.40;79.90
17795;DHT22;9021;50.882;4.326;2023-05-14T11:17:36;31.60;78.80
17795;DHT22;9021;50.882;4.326;2023-05-14T11:20:02;31.90;76.40
17795;DHT22;9021;50.882;4.326;2023-05-14T11:22:30;31.30;77.60
17795;DHT22;9021;50.882;4.326;2023-05-14T11:24:55;30.50;78.50
17795;DHT22;9021;50.882;4.326;2023-05-14T11:27:21;30.50;78.80
17795;DHT22;9021;50.882;4.326;2023-05-14T11:29:48;30.90;78.40
17795;DHT22;9021;50.882;4.326;2023-05-14T11:32:14;30.70;78.40
17795;DHT22;9021;50.882;4.326;2023-05-14T11:34:42;30.80;78.20
17795;DHT22;9021;50.882;4.326;2023-05-14T11:37:09;31.30;78.00
17795;DHT22;9021;50.882;4.326;2023-05-14T11:39:35;32.10;76.90
17795;DHT22;9021;50.882;4.326;2023-05-14T11:42:02;32.40;75.60
17795;DHT22;9021;50.882;4.326;2023-05-14T11:44:30;32.40;74.80
17795;DHT22;9021;50.882;4.326;2023-05-14T11:46:56;33.10;74.30
17795;DHT22;9021;50.882;4.326;2023-05-14T11:49:22;33.50;73.60
17795;DHT22;9021;50.882;4.326;2023-05-14T11:51:48;33.50;74.20
17795;DHT22;9021;50.882;4.326;2023-05-14T11:54:14;33.60;74.20
17795;DHT22;9021;50.882;4.326;2023-05-14T11:56:39;33.70;73.70
17795;DHT22;9021;50.882;4.326;2023-05-14T11:59:05;33.30;72.90
17795;DHT22;9021;50.882;4.326;2023-05-14T12:01:36;33.30;73.10
17795;DHT22;9021;50.882;4.326;2023-05-14T12:04:05;33.10;73.20
17795;DHT22;9021;50.882;4.326;2023-05-14T12:06:31;32.60;72.30
17795;DHT22;9021;50.882;4.326;2023-05-14T12:08:56;32.30;73.90
17795;DHT22;9021;50.882;4.326;2023-05-14T12:11:22;32.40;73.50
17795;DHT22;9021;50.882;4.326;2023-05-14T12:13:48;32.50;74.00
17795;DHT22;9021;50.882;4.326;2023-05-14T12:16:13;32.00;73.90
17795;DHT22;9021;50.882;4.326;2023-05-14T12:18:39;32.10;73.60
17795;DHT22;9021;50.882;4.326;2023-05-14T12:21:04;31.60;74.30
17795;DHT22;9021;50.882;4.326;2023-05-14T12:23:32;31.50;74.90
17795;DHT22;9021;50.882;4.326;2023-05-14T12:26:15;31.40;75.10
17795;DHT22;9021;50.882;4.326;2023-05-14T12:28:41;31.30;75.60
17795;DHT22;9021;50.882;4.326;2023-05-14T12:31:07;31.10;76.60
17795;DHT22;9021;50.882;4.326;2023-05-14T12:33:33;30.80;76.10
17795;DHT22;9021;50.882;4.326;2023-05-14T12:35:58;30.50;76.90
17795;DHT22;9021;50.882;4.326;2023-05-14T12:38:26;30.60;76.80
17795;DHT22;9021;50.882;4.326;2023-05-14T12:40:52;30.60;76.30
17795;DHT22;9021;50.882;4.326;2023-05-14T12:43:17;30.30;76.40
17795;DHT22;9021;50.882;4.326;2023-05-14T12:45:43;30.10;76.50
17795;DHT22;9021;50.882;4.326;2023-05-14T12:48:08;30.00;77.50
17795;DHT22;9021;50.882;4.326;2023-05-14T12:50:34;29.80;77.90
17795;DHT22;9021;50.882;4.326;2023-05-14T12:52:59;29.60;77.70
17795;DHT22;9021;50.882;4.326;2023-05-14T12:55:27;29.30;77.80
17795;DHT22;9021;50.882;4.326;2023-05-14T12:57:53;29.20;78.00
17795;DHT22;9021;50.882;4.326;2023-05-14T13:00:19;29.10;79.20
17795;DHT22;9021;50.882;4.326;2023-05-14T13:02:44;28.80;79.40
17795;DHT22;9021;50.882;4.326;2023-05-14T13:05:10;28.60;80.00
17795;DHT22;9021;50.882;4.326;2023-05-14T13:07:36;27.90;80.20
17795;DHT22;9021;50.882;4.326;2023-05-14T13:10:02;27.70;79.50
17795;DHT22;9021;50.882;4.326;2023-05-14T13:12:29;27.80;79.80
17795;DHT22;9021;50.882;4.326;2023-05-14T13:14:55;27.50;80.20
17795;DHT22;9021;50.882;4.326;2023-05-14T13:17:20;27.60;80.00
17795;DHT22;9021;50.882;4.326;2023-05-14T13:19:47;27.50;80.90
17795;DHT22;9021;50.882;4.326;2023-05-14T13:22:13;27.20;81.60
17795;DHT22;9021;50.882;4.326;2023-05-14T13:24:41;27.20;82.50
17795;DHT22;9021;50.882;4.326;2023-05-14T13:27:06;27.10;82.30
17795;DHT22;9021;50.882;4.326;2023-05-14T13:29:32;27.00;82.60
17795;DHT22;9021;50.882;4.326;2023-05-14T13:31:58;27.00;82.70
17795;DHT22;9021;50.882;4.326;2023-05-14T13:34:23;26.80;82.70
17795;DHT22;9021;50.882;4.326;2023-05-14T13:36:50;26.80;83.80
17795;DHT22;9021;50.882;4.326;2023-05-14T13:39:15;26.90;83.80
17795;DHT22;9021;50.882;4.326;2023-05-14T13:41:41;27.00;82.30
17795;DHT22;9021;50.882;4.326;2023-05-14T13:44:07;27.20;81.10
17795;DHT22;9021;50.882;4.326;2023-05-14T13:46:32;27.20;82.30
17795;DHT22;9021;50.882;4.326;2023-05-14T13:49:01;27.20;82.40
17795;DHT22;9021;50.882;4.326;2023-05-14T13:51:26;27.10;84.00
17795;DHT22;9021;50.882;4.326;2023-05-14T13:53:52;27.00;83.40
17795;DHT22;9021;50.882;4.326;2023-05-14T13:56:17;26.80;85.20
17795;DHT22;9021;50.882;4.326;2023-05-14T13:58:43;26.80;84.50
17795;DHT22;9021;50.882;4.326;2023-05-14T14:01:09;26.80;84.20
17795;DHT22;9021;50.882;4.326;2023-05-14T14:03:34;26.50;83.10
17795;DHT22;9021;50.882;4.326;2023-05-14T14:06:00;26.50;85.30
17795;DHT22;9021;50.882;4.326;2023-05-14T14:08:25;26.50;83.50
17795;DHT22;9021;50.882;4.326;2023-05-14T14:10:51;26.50;84.20
17795;DHT22;9021;50.882;4.326;2023-05-14T14:13:18;26.60;84.90
17795;DHT22;9021;50.882;4.326;2023-05-14T14:15:45;26.70;84.20
17795;DHT22;9021;50.882;4.326;2023-05-14T14:18:10;26.70;83.50
17795;DHT22;9021;50.882;4.326;2023-05-14T14:20:36;26.70;84.60
17795;DHT22;9021;50.882;4.326;2023-05-14T14:23:02;26.60;83.80
17795;DHT22;9021;50.882;4.326;2023-05-14T14:25:28;26.60;83.80
17795;DHT22;9021;50.882;4.326;2023-05-14T14:27:53;26.50;84.00
17795;DHT22;9021;50.882;4.326;2023-05-14T14:30:19;26.40;83.10
17795;DHT22;9021;50.882;4.326;2023-05-14T14:32:45;26.40;83.80
17795;DHT22;9021;50.882;4.326;2023-05-14T14:35:11;26.40;84.60
17795;DHT22;9021;50.882;4.326;2023-05-14T14:37:37;26.40;85.00
17795;DHT22;9021;50.882;4.326;2023-05-14T14:40:03;26.50;84.60
17795;DHT22;9021;50.882;4.326;2023-05-14T14:42:32;26.50;84.80
17795;DHT22;9021;50.882;4.326;2023-05-14T14:44:57;26.50;84.20
17795;DHT22;9021;50.882;4.326;2023-05-14T14:47:23;26.30;84.00
17795;DHT22;9021;50.882;4.326;2023-05-14T14:49:48;26.20;86.00
17795;DHT22;9021;50.882;4.326;2023-05-14T14:52:17;26.20;84.80
17795;DHT22;9021;50.882;4.326;2023-05-14T14:54:42;26.30;85.90
17795;DHT22;9021;50.882;4.326;2023-05-14T14:57:08;26.20;85.10
17795;DHT22;9021;50.882;4.326;2023-05-14T14:59:39;26.00;86.00
17795;DHT22;9021;50.882;4.326;2023-05-14T15:02:05;26.00;85.30
17795;DHT22;9021;50.882;4.326;2023-05-14T15:04:35;26.00;84.40
17795;DHT22;9021;50.882;4.326;2023-05-14T15:07:08;26.00;86.50
17795;DHT22;9021;50.882;4.326;2023-05-14T15:09:34;25.80;86.70
17795;DHT22;9021;50.882;4.326;2023-05-14T15:11:59;25.70;86.10
17795;DHT22;9021;50.882;4.326;2023-05-14T15:14:25;25.70;86.00
17795;DHT22;9021;50.882;4.326;2023-05-14T15:16:52;25.60;86.00
17795;DHT22;9021;50.882;4.326;2023-05-14T15:19:21;25.60;86.70
17795;DHT22;9021;50.882;4.326;2023-05-14T15:21:47;25.50;86.10
17795;DHT22;9021;50.882;4.326;2023-05-14T15:24:13;25.50;86.10
17795;DHT22;9021;50.882;4.326;2023-05-14T15:26:39;25.20;87.40
17795;DHT22;9021;50.882;4.326;2023-05-14T15:29:05;25.20;86.70
17795;DHT22;9021;50.882;4.326;2023-05-14T15:31:31;25.10;86.30
17795;DHT22;9021;50.882;4.326;2023-05-14T15:33:57;25.00;86.50
17795;DHT22;9021;50.882;4.326;2023-05-14T15:36:23;25.00;86.60
17795;DHT22;9021;50.882;4.326;2023-05-14T15:38:48;24.90;87.30
17795;DHT22;9021;50.882;4.326;2023-05-14T15:41:14;24.80;88.40
17795;DHT22;9021;50.882;4.326;2023-05-14T15:43:40;24.60;89.30
17795;DHT22;9021;50.882;4.326;2023-05-14T15:46:05;24.40;89.30
17795;DHT22;9021;50.882;4.326;2023-05-14T15:48:31;24.30;89.70
17795;DHT22;9021;50.882;4.326;2023-05-14T15:50:56;24.20;89.70
17795;DHT22;9021;50.882;4.326;2023-05-14T15:53:23;24.10;90.00
17795;DHT22;9021;50.882;4.326;2023-05-14T15:55:50;23.90;90.10